sensor_id;sensor_type;location;lat;lon;timestamp;temperature;humidity
28677;DHT22;15858;48.338;11.078;2022-09-09T00:04:29;13.80;99.90
28677;DHT22;15858;48.338;11.078;2022-09-09T00:15:41;13.70;99.90
28677;DHT22;15858;48.338;11.078;2022-09-09T00:18:24;13.70;99.90
28677;DHT22;15858;48.338;11.078;2022-09-09T00:21:06;13.70;99.90
28677;DHT22;15858;48.338;11.078;2022-09-09T00:23:37;13.60;99.90
28677;DHT22;15858;48.338;11.078;2022-09-09T00:26:22;13.50;99.90
28677;DHT22;15858;48.338;11.078;2022-09-09T00:29:03;13.40;99.90
28677;DHT22;15858;48.338;11.078;2022-09-09T00:31:32;13.40;99.90
28677;DHT22;15858;48.338;11.078;2022-09-09T00:34:21;13.50;99.90
28677;DHT22;15858;48.338;11.078;2022-09-09T00:36:52;13.50;99.90
28677;DHT22;15858;48.338;11.078;2022-09-09T00:39:42;13.60;99.90
28677;DHT22;15858;48.338;11.078;2022-09-09T00:42:25;13.50;99.90
28677;DHT22;15858;48.338;11.078;2022-09-09T00:45:01;13.50;99.90
28677;DHT22;15858;48.338;11.078;2022-09-09T00:48:00;13.50;99.90
28677;DHT22;15858;48.338;11.078;2022-09-09T00:50:59;13.50;99.90
28677;DHT22;15858;48.338;11.078;2022-09-09T00:58:23;13.50;99.90
28677;DHT22;15858;48.338;11.078;2022-09-09T01:01:08;13.40;99.90
28677;DHT22;15858;48.338;11.078;2022-09-09T01:03:38;13.40;99.90
28677;DHT22;15858;48.338;11.078;2022-09-09T01:06:19;13.20;99.90
28677;DHT22;15858;48.338;11.078;2022-09-09T01:09:05;13.10;99.90
28677;DHT22;15858;48.338;11.078;2022-09-09T01:12:14;13.20;99.90
28677;DHT22;15858;48.338;11.078;2022-09-09T01:14:48;13.30;99.90
28677;DHT22;15858;48.338;11.078;2022-09-09T01:17:20;13.40;99.90
28677;DHT22;15858;48.338;11.078;2022-09-09T01:19:58;13.40;99.90
28677;DHT22;15858;48.338;11.078;2022-09-09T01:25:17;13.30;99.90
28677;DHT22;15858;48.338;11.078;2022-09-09T01:27:47;13.40;99.90
28677;DHT22;15858;48.338;11.078;2022-09-09T01:30:16;13.50;99.90
28677;DHT22;15858;48.338;11.078;2022-09-09T01:32:47;13.50;99.90
28677;DHT22;15858;48.338;11.078;2022-09-09T01:38:18;13.60;99.90
28677;DHT22;15858;48.338;11.078;2022-09-09T01:40:45;13.60;99.90
28677;DHT22;15858;48.338;11.078;2022-09-09T01:43:11;13.50;99.90
28677;DHT22;15858;48.338;11.078;2022-09-09T01:45:39;13.50;99.90
28677;DHT22;15858;48.338;11.078;2022-09-09T01:48:07;13.60;99.90
28677;DHT22;15858;48.338;11.078;2022-09-09T01:50:34;13.60;99.90
28677;DHT22;15858;48.338;11.078;2022-09-09T01:53:01;13.60;99.90
28677;DHT22;15858;48.338;11.078;2022-09-09T01:55:40;13.50;99.90
28677;DHT22;15858;48.338;11.078;2022-09-09T02:03:57;13.40;99.90
28677;DHT22;15858;48.338;11.078;2022-09-09T02:06:38;13.40;99.90
28677;DHT22;15858;48.338;11.078;2022-09-09T02:09:07;13.30;99.90
28677;DHT22;15858;48.338;11.078;2022-09-09T02:11:37;13.30;99.90
28677;DHT22;15858;48.338;11.078;2022-09-09T02:14:17;13.30;99.90
28677;DHT22;15858;48.338;11.078;2022-09-09T02:16:51;13.30;99.90
28677;DHT22;15858;48.338;11.078;2022-09-09T02:19:20;13.20;99.90
28677;DHT22;15858;48.338;11.078;2022-09-09T02:21:48;13.30;99.90
28677;DHT22;15858;48.338;11.078;2022-09-09T02:24:16;13.30;99.90
28677;DHT22;15858;48.338;11.078;2022-09-09T02:26:44;13.20;99.90
28677;DHT22;15858;48.338;11.078;2022-09-09T02:29:15;13.20;99.90
28677;DHT22;15858;48.338;11.078;2022-09-09T02:31:44;13.20;99.90
28677;DHT22;15858;48.338;11.078;2022-09-09T02:34:13;13.20;99.90
28677;DHT22;15858;48.338;11.078;2022-09-09T02:36:41;13.10;99.90
28677;DHT22;15858;48.338;11.078;2022-09-09T02:39:10;13.10;99.90
28677;DHT22;15858;48.338;11.078;2022-09-09T02:41:39;13.10;99.90
28677;DHT22;15858;48.338;11.078;2022-09-09T02:44:11;13.10;99.90
28677;DHT22;15858;48.338;11.078;2022-09-09T02:47:14;13.00;99.90
28677;DHT22;15858;48.338;11.078;2022-09-09T02:50:12;13.10;99.90
28677;DHT22;15858;48.338;11.078;2022-09-09T02:57:47;13.20;99.90
28677;DHT22;15858;48.338;11.078;2022-09-09T03:00:14;13.20;99.90
28677;DHT22;15858;48.338;11.078;2022-09-09T03:02:41;13.30;99.90
28677;DHT22;15858;48.338;11.078;2022-09-09T03:05:08;13.30;99.90
28677;DHT22;15858;48.338;11.078;2022-09-09T03:07:35;13.30;99.90
28677;DHT22;15858;48.338;11.078;2022-09-09T03:10:02;13.30;99.90
28677;DHT22;15858;48.338;11.078;2022-09-09T03:12:28;13.30;99.90
28677;DHT22;15858;48.338;11.078;2022-09-09T03:14:55;13.20;99.90
28677;DHT22;15858;48.338;11.078;2022-09-09T03:17:22;13.10;99.90
28677;DHT22;15858;48.338;11.078;2022-09-09T03:19:48;13.00;99.90
28677;DHT22;15858;48.338;11.078;2022-09-09T03:22:15;12.90;99.90
28677;DHT22;15858;48.338;11.078;2022-09-09T03:24:41;13.00;99.90
28677;DHT22;15858;48.338;11.078;2022-09-09T03:27:08;12.90;99.90
28677;DHT22;15858;48.338;11.078;2022-09-09T03:29:35;12.90;99.90
28677;DHT22;15858;48.338;11.078;2022-09-09T03:32:02;12.90;99.90
28677;DHT22;15858;48.338;11.078;2022-09-09T03:34:28;12.90;99.90
28677;DHT22;15858;48.338;11.078;2022-09-09T03:36:55;13.00;99.90
28677;DHT22;15858;48.338;11.078;2022-09-09T03:39:22;13.10;99.90
28677;DHT22;15858;48.338;11.078;2022-09-09T03:41:48;13.00;99.90
28677;DHT22;15858;48.338;11.078;2022-09-09T03:44:15;13.10;99.90
28677;DHT22;15858;48.338;11.078;2022-09-09T03:46:41;13.00;99.90
28677;DHT22;15858;48.338;11.078;2022-09-09T03:49:08;13.10;99.90
28677;DHT22;15858;48.338;11.078;2022-09-09T03:51:34;13.10;99.90
28677;DHT22;15858;48.338;11.078;2022-09-09T03:54:01;13.10;99.90
28677;DHT22;15858;48.338;11.078;2022-09-09T03:56:28;13.00;99.90
28677;DHT22;15858;48.338;11.078;2022-09-09T03:58:54;13.00;99.90
28677;DHT22;15858;48.338;11.078;2022-09-09T04:01:21;12.90;99.90
28677;DHT22;15858;48.338;11.078;2022-09-09T04:03:47;12.90;99.90
28677;DHT22;15858;48.338;11.078;2022-09-09T04:06:15;12.90;99.90
28677;DHT22;15858;48.338;11.078;2022-09-09T04:08:41;12.90;99.90
28677;DHT22;15858;48.338;11.078;2022-09-09T04:11:08;12.90;99.90
28677;DHT22;15858;48.338;11.078;2022-09-09T04:13:37;12.90;99.90
28677;DHT22;15858;48.338;11.078;2022-09-09T04:16:04;12.80;99.90
28677;DHT22;15858;48.338;11.078;2022-09-09T04:18:31;12.80;99.90
28677;DHT22;15858;48.338;11.078;2022-09-09T04:20:58;12.70;99.90
28677;DHT22;15858;48.338;11.078;2022-09-09T04:23:26;12.70;99.90
28677;DHT22;15858;48.338;11.078;2022-09-09T04:25:55;12.80;99.90
28677;DHT22;15858;48.338;11.078;2022-09-09T04:28:24;12.80;99.90
28677;DHT22;15858;48.338;11.078;2022-09-09T04:30:51;12.90;99.90
28677;DHT22;15858;48.338;11.078;2022-09-09T04:33:18;13.00;99.90
28677;DHT22;15858;48.338;11.078;2022-09-09T04:35:47;13.00;99.90
28677;DHT22;15858;48.338;11.078;2022-09-09T04:38:14;13.00;99.90
28677;DHT22;15858;48.338;11.078;2022-09-09T04:40:46;13.10;99.90
28677;DHT22;15858;48.338;11.078;2022-09-09T04:43:14;13.20;99.90
28677;DHT22;15858;48.338;11.078;2022-09-09T04:45:41;13.20;99.90
28677;DHT22;15858;48.338;11.078;2022-09-09T04:48:08;13.30;99.90
28677;DHT22;15858;48.338;11.078;2022-09-09T04:50:35;13.30;99.90
28677;DHT22;15858;48.338;11.078;2022-09-09T04:53:03;13.10;99.90
28677;DHT22;15858;48.338;11.078;2022-09-09T04:55:29;13.20;99.90
28677;DHT22;15858;48.338;11.078;2022-09-09T04:57:56;13.30;99.90
28677;DHT22;15858;48.338;11.078;2022-09-09T05:00:23;13.40;99.90
28677;DHT22;15858;48.338;11.078;2022-09-09T05:02:49;13.40;99.90
28677;DHT22;15858;48.338;11.078;2022-09-09T05:05:16;13.50;99.90
28677;DHT22;15858;48.338;11.078;2022-09-09T05:07:42;13.50;99.90
28677;DHT22;15858;48.338;11.078;2022-09-09T05:10:09;13.60;99.90
28677;DHT22;15858;48.338;11.078;2022-09-09T05:12:36;13.60;99.90
28677;DHT22;15858;48.338;11.078;2022-09-09T05:15:02;13.70;99.90
28677;DHT22;15858;48.338;11.078;2022-09-09T05:17:29;13.80;99.90
28677;DHT22;15858;48.338;11.078;2022-09-09T05:19:56;13.80;99.90
28677;DHT22;15858;48.338;11.078;2022-09-09T05:22:22;13.80;99.90
28677;DHT22;15858;48.338;11.078;2022-09-09T05:24:50;13.90;99.90
28677;DHT22;15858;48.338;11.078;2022-09-09T05:27:17;13.90;99.90
28677;DHT22;15858;48.338;11.078;2022-09-09T05:29:44;14.00;99.90
28677;DHT22;15858;48.338;11.078;2022-09-09T05:32:11;14.00;99.90
28677;DHT22;15858;48.338;11.078;2022-09-09T05:34:41;14.00;99.90
28677;DHT22;15858;48.338;11.078;2022-09-09T05:37:07;14.00;99.90
28677;DHT22;15858;48.338;11.078;2022-09-09T05:39:34;14.00;99.90
28677;DHT22;15858;48.338;11.078;2022-09-09T05:42:01;14.00;99.90
28677;DHT22;15858;48.338;11.078;2022-09-09T05:44:28;14.10;99.90
28677;DHT22;15858;48.338;11.078;2022-09-09T05:46:54;14.10;99.90
28677;DHT22;15858;48.338;11.078;2022-09-09T05:49:21;14.00;99.90
28677;DHT22;15858;48.338;11.078;2022-09-09T05:51:47;14.00;99.90
28677;DHT22;15858;48.338;11.078;2022-09-09T05:54:14;14.10;99.90
28677;DHT22;15858;48.338;11.078;2022-09-09T05:56:41;14.10;99.90
28677;DHT22;15858;48.338;11.078;2022-09-09T05:59:08;14.10;99.90
28677;DHT22;15858;48.338;11.078;2022-09-09T06:01:36;14.20;99.90
28677;DHT22;15858;48.338;11.078;2022-09-09T06:04:03;14.20;99.90
28677;DHT22;15858;48.338;11.078;2022-09-09T06:06:35;14.20;99.90
28677;DHT22;15858;48.338;11.078;2022-09-09T06:09:03;14.30;99.90
28677;DHT22;15858;48.338;11.078;2022-09-09T06:11:31;14.20;99.90
28677;DHT22;15858;48.338;11.078;2022-09-09T06:13:58;14.20;99.90
28677;DHT22;15858;48.338;11.078;2022-09-09T06:16:28;14.20;99.90
28677;DHT22;15858;48.338;11.078;2022-09-09T06:18:56;14.20;99.90
28677;DHT22;15858;48.338;11.078;2022-09-09T06:21:31;14.20;99.90
28677;DHT22;15858;48.338;11.078;2022-09-09T06:23:58;14.20;99.90
28677;DHT22;15858;48.338;11.078;2022-09-09T06:26:31;14.20;99.90
28677;DHT22;15858;48.338;11.078;2022-09-09T06:28:59;14.30;99.90
28677;DHT22;15858;48.338;11.078;2022-09-09T06:31:27;14.30;99.90
28677;DHT22;15858;48.338;11.078;2022-09-09T06:33:57;14.40;99.90
28677;DHT22;15858;48.338;11.078;2022-09-09T06:36:26;14.40;99.90
28677;DHT22;15858;48.338;11.078;2022-09-09T06:38:53;14.40;99.90
28677;DHT22;15858;48.338;11.078;2022-09-09T06:41:21;14.40;99.90
28677;DHT22;15858;48.338;11.078;2022-09-09T06:43:48;14.40;99.90
28677;DHT22;15858;48.338;11.078;2022-09-09T06:46:17;14.40;99.90
28677;DHT22;15858;48.338;11.078;2022-09-09T06:48:45;14.50;99.90
28677;DHT22;15858;48.338;11.078;2022-09-09T06:51:19;14.50;99.90
28677;DHT22;15858;48.338;11.078;2022-09-09T06:53:47;14.50;99.90
28677;DHT22;15858;48.338;11.078;2022-09-09T06:58:48;14.60;99.90
28677;DHT22;15858;48.338;11.078;2022-09-09T07:01:24;14.70;99.90
28677;DHT22;15858;48.338;11.078;2022-09-09T07:03:52;14.70;99.90
28677;DHT22;15858;48.338;11.078;2022-09-09T07:06:31;14.70;99.90
28677;DHT22;15858;48.338;11.078;2022-09-09T07:09:05;14.70;99.90
28677;DHT22;15858;48.338;11.078;2022-09-09T07:11:33;14.80;99.90
28677;DHT22;15858;48.338;11.078;2022-09-09T07:14:00;14.80;99.90
28677;DHT22;15858;48.338;11.078;2022-09-09T07:16:28;14.80;99.90
28677;DHT22;15858;48.338;11.078;2022-09-09T07:18:55;14.80;99.90
28677;DHT22;15858;48.338;11.078;2022-09-09T07:21:21;14.70;99.90
28677;DHT22;15858;48.338;11.078;2022-09-09T07:23:48;14.70;99.90
28677;DHT22;15858;48.338;11.078;2022-09-09T07:26:19;14.80;99.90
28677;DHT22;15858;48.338;11.078;2022-09-09T07:28:46;14.90;99.90
28677;DHT22;15858;48.338;11.078;2022-09-09T07:31:16;14.80;99.90
28677;DHT22;15858;48.338;11.078;2022-09-09T07:33:44;14.90;99.90
28677;DHT22;15858;48.338;11.078;2022-09-09T07:36:22;14.90;99.90
28677;DHT22;15858;48.338;11.078;2022-09-09T07:38:54;15.00;99.90
28677;DHT22;15858;48.338;11.078;2022-09-09T07:41:28;14.90;99.90
28677;DHT22;15858;48.338;11.078;2022-09-09T07:43:54;15.00;99.90
28677;DHT22;15858;48.338;11.078;2022-09-09T07:46:23;15.00;99.90
28677;DHT22;15858;48.338;11.078;2022-09-09T07:48:52;15.00;99.90
28677;DHT22;15858;48.338;11.078;2022-09-09T07:51:33;15.10;99.90
28677;DHT22;15858;48.338;11.078;2022-09-09T07:54:02;15.20;99.90
28677;DHT22;15858;48.338;11.078;2022-09-09T07:56:30;15.20;99.90
28677;DHT22;15858;48.338;11.078;2022-09-09T07:58:59;15.20;99.90
28677;DHT22;15858;48.338;11.078;2022-09-09T08:01:31;15.40;99.90
28677;DHT22;15858;48.338;11.078;2022-09-09T08:04:03;15.50;99.90
28677;DHT22;15858;48.338;11.078;2022-09-09T08:06:43;15.50;99.90
28677;DHT22;15858;48.338;11.078;2022-09-09T08:09:10;15.50;99.90
28677;DHT22;15858;48.338;11.078;2022-09-09T08:11:37;15.60;99.90
28677;DHT22;15858;48.338;11.078;2022-09-09T08:14:06;15.60;99.90
28677;DHT22;15858;48.338;11.078;2022-09-09T08:16:36;15.70;99.90
28677;DHT22;15858;48.338;11.078;2022-09-09T08:19:03;15.70;99.90
28677;DHT22;15858;48.338;11.078;2022-09-09T08:21:32;15.80;99.90
28677;DHT22;15858;48.338;11.078;2022-09-09T08:24:00;16.00;99.90
28677;DHT22;15858;48.338;11.078;2022-09-09T08:26:39;15.90;99.90
28677;DHT22;15858;48.338;11.078;2022-09-09T08:29:07;15.90;99.90
28677;DHT22;15858;48.338;11.078;2022-09-09T08:31:36;16.00;99.90
28677;DHT22;15858;48.338;11.078;2022-09-09T08:34:04;16.10;99.90
28677;DHT22;15858;48.338;11.078;2022-09-09T08:36:35;16.10;99.90
28677;DHT22;15858;48.338;11.078;2022-09-09T08:39:03;16.10;99.90
28677;DHT22;15858;48.338;11.078;2022-09-09T08:41:52;16.10;99.90
28677;DHT22;15858;48.338;11.078;2022-09-09T08:47:12;16.10;99.90
28677;DHT22;15858;48.338;11.078;2022-09-09T08:52:36;16.20;99.90
28677;DHT22;15858;48.338;11.078;2022-09-09T08:55:26;16.30;99.90
28677;DHT22;15858;48.338;11.078;2022-09-09T08:57:56;16.40;99.90
28677;DHT22;15858;48.338;11.078;2022-09-09T09:00:27;16.50;99.90
28677;DHT22;15858;48.338;11.078;2022-09-09T09:03:19;16.60;99.90
28677;DHT22;15858;48.338;11.078;2022-09-09T09:06:06;16.70;99.90
28677;DHT22;15858;48.338;11.078;2022-09-09T09:11:44;16.70;99.90
28677;DHT22;15858;48.338;11.078;2022-09-09T09:14:18;16.70;99.90
28677;DHT22;15858;48.338;11.078;2022-09-09T09:19:28;16.70;99.90
28677;DHT22;15858;48.338;11.078;2022-09-09T09:22:11;16.70;99.90
28677;DHT22;15858;48.338;11.078;2022-09-09T09:24:46;16.70;99.90
28677;DHT22;15858;48.338;11.078;2022-09-09T09:27:34;16.80;99.90
28677;DHT22;15858;48.338;11.078;2022-09-09T09:30:12;16.80;99.90
28677;DHT22;15858;48.338;11.078;2022-09-09T09:33:17;16.80;99.90
28677;DHT22;15858;48.338;11.078;2022-09-09T09:35:45;16.80;99.90
28677;DHT22;15858;48.338;11.078;2022-09-09T09:38:20;16.80;99.90
28677;DHT22;15858;48.338;11.078;2022-09-09T09:41:07;16.90;99.90
28677;DHT22;15858;48.338;11.078;2022-09-09T09:43:35;17.10;99.90
28677;DHT22;15858;48.338;11.078;2022-09-09T09:46:22;17.10;99.90
28677;DHT22;15858;48.338;11.078;2022-09-09T09:49:04;17.00;99.90
28677;DHT22;15858;48.338;11.078;2022-09-09T09:51:31;17.00;99.90
28677;DHT22;15858;48.338;11.078;2022-09-09T09:54:13;17.00;99.90
28677;DHT22;15858;48.338;11.078;2022-09-09T09:56:41;17.10;99.90
28677;DHT22;15858;48.338;11.078;2022-09-09T09:59:24;17.20;99.90
28677;DHT22;15858;48.338;11.078;2022-09-09T10:02:22;17.20;99.90
28677;DHT22;15858;48.338;11.078;2022-09-09T10:04:48;17.20;99.90
28677;DHT22;15858;48.338;11.078;2022-09-09T10:07:20;17.20;99.90
28677;DHT22;15858;48.338;11.078;2022-09-09T10:09:53;17.30;99.90
28677;DHT22;15858;48.338;11.078;2022-09-09T10:36:47;17.50;99.90
28677;DHT22;15858;48.338;11.078;2022-09-09T10:39:35;17.50;99.90
28677;DHT22;15858;48.338;11.078;2022-09-09T10:42:12;17.50;99.90
28677;DHT22;15858;48.338;11.078;2022-09-09T10:47:36;17.50;99.90
28677;DHT22;15858;48.338;11.078;2022-09-09T10:50:41;17.70;99.90
28677;DHT22;15858;48.338;11.078;2022-09-09T10:53:45;17.60;99.90
28677;DHT22;15858;48.338;11.078;2022-09-09T10:56:16;17.70;99.90
28677;DHT22;15858;48.338;11.078;2022-09-09T11:01:47;17.80;99.90
28677;DHT22;15858;48.338;11.078;2022-09-09T11:04:22;17.80;99.90
28677;DHT22;15858;48.338;11.078;2022-09-09T11:06:55;18.00;99.90
28677;DHT22;15858;48.338;11.078;2022-09-09T11:09:26;18.10;99.90
28677;DHT22;15858;48.338;11.078;2022-09-09T11:11:56;18.20;99.90
28677;DHT22;15858;48.338;11.078;2022-09-09T11:14:42;18.20;99.90
28677;DHT22;15858;48.338;11.078;2022-09-09T11:17:16;18.30;99.90
28677;DHT22;15858;48.338;11.078;2022-09-09T11:19:45;18.30;99.90
28677;DHT22;15858;48.338;11.078;2022-09-09T11:22:28;18.30;99.90
28677;DHT22;15858;48.338;11.078;2022-09-09T11:25:13;18.40;99.90
28677;DHT22;15858;48.338;11.078;2022-09-09T11:33:56;18.20;99.90
28677;DHT22;15858;48.338;11.078;2022-09-09T11:41:36;18.10;99.90
28677;DHT22;15858;48.338;11.078;2022-09-09T11:44:18;18.10;99.90
28677;DHT22;15858;48.338;11.078;2022-09-09T11:46:49;18.10;99.90
28677;DHT22;15858;48.338;11.078;2022-09-09T11:49:30;18.10;99.90
28677;DHT22;15858;48.338;11.078;2022-09-09T11:52:20;18.00;99.90
28677;DHT22;15858;48.338;11.078;2022-09-09T11:54:49;18.00;99.90
28677;DHT22;15858;48.338;11.078;2022-09-09T11:57:32;18.10;99.90
28677;DHT22;15858;48.338;11.078;2022-09-09T11:59:59;18.10;99.90
28677;DHT22;15858;48.338;11.078;2022-09-09T12:02:28;18.20;99.90
28677;DHT22;15858;48.338;11.078;2022-09-09T12:05:05;18.10;99.90
28677;DHT22;15858;48.338;11.078;2022-09-09T12:07:56;18.10;99.90
28677;DHT22;15858;48.338;11.078;2022-09-09T12:10:32;18.20;99.90
28677;DHT22;15858;48.338;11.078;2022-09-09T12:13:26;18.20;99.90
28677;DHT22;15858;48.338;11.078;2022-09-09T12:16:35;18.30;99.90
28677;DHT22;15858;48.338;11.078;2022-09-09T12:19:26;18.40;99.90
28677;DHT22;15858;48.338;11.078;2022-09-09T12:24:48;18.60;99.90
28677;DHT22;15858;48.338;11.078;2022-09-09T12:27:36;18.70;99.90
28677;DHT22;15858;48.338;11.078;2022-09-09T12:30:10;18.70;99.90
28677;DHT22;15858;48.338;11.078;2022-09-09T12:32:38;18.60;99.90
28677;DHT22;15858;48.338;11.078;2022-09-09T12:35:12;18.60;99.90
28677;DHT22;15858;48.338;11.078;2022-09-09T12:37:44;18.70;99.90
28677;DHT22;15858;48.338;11.078;2022-09-09T12:40:24;18.70;99.90
28677;DHT22;15858;48.338;11.078;2022-09-09T12:42:51;18.70;99.90
28677;DHT22;15858;48.338;11.078;2022-09-09T12:45:23;18.80;99.90
28677;DHT22;15858;48.338;11.078;2022-09-09T12:48:10;18.80;99.90
28677;DHT22;15858;48.338;11.078;2022-09-09T12:50:43;19.10;99.90
28677;DHT22;15858;48.338;11.078;2022-09-09T12:53:21;19.00;99.90
28677;DHT22;15858;48.338;11.078;2022-09-09T12:55:55;19.00;99.90
28677;DHT22;15858;48.338;11.078;2022-09-09T12:58:23;18.90;99.90
28677;DHT22;15858;48.338;11.078;2022-09-09T13:00:52;19.00;99.90
28677;DHT22;15858;48.338;11.078;2022-09-09T13:03:20;18.90;99.90
28677;DHT22;15858;48.338;11.078;2022-09-09T13:05:47;18.90;99.90
28677;DHT22;15858;48.338;11.078;2022-09-09T13:08:15;18.90;99.90
28677;DHT22;15858;48.338;11.078;2022-09-09T13:13:28;18.80;99.90
28677;DHT22;15858;48.338;11.078;2022-09-09T13:15:58;18.90;99.90
28677;DHT22;15858;48.338;11.078;2022-09-09T13:18:30;19.00;99.90
28677;DHT22;15858;48.338;11.078;2022-09-09T13:20:58;19.20;99.90
28677;DHT22;15858;48.338;11.078;2022-09-09T13:23:30;19.30;99.90
28677;DHT22;15858;48.338;11.078;2022-09-09T13:26:27;19.40;99.90
28677;DHT22;15858;48.338;11.078;2022-09-09T13:29:19;19.40;99.90
28677;DHT22;15858;48.338;11.078;2022-09-09T13:32:17;19.40;99.90
28677;DHT22;15858;48.338;11.078;2022-09-09T13:35:23;19.30;99.90
28677;DHT22;15858;48.338;11.078;2022-09-09T13:37:50;19.40;99.90
28677;DHT22;15858;48.338;11.078;2022-09-09T13:40:21;19.40;99.90
28677;DHT22;15858;48.338;11.078;2022-09-09T13:42:52;19.40;99.90
28677;DHT22;15858;48.338;11.078;2022-09-09T13:45:24;19.50;99.90
28677;DHT22;15858;48.338;11.078;2022-09-09T13:47:51;19.60;99.90
28677;DHT22;15858;48.338;11.078;2022-09-09T13:50:20;19.60;99.90
28677;DHT22;15858;48.338;11.078;2022-09-09T13:52:48;19.60;99.90
28677;DHT22;15858;48.338;11.078;2022-09-09T13:55:14;19.40;99.90
28677;DHT22;15858;48.338;11.078;2022-09-09T13:57:53;19.40;99.90
28677;DHT22;15858;48.338;11.078;2022-09-09T14:00:21;19.30;99.90
28677;DHT22;15858;48.338;11.078;2022-09-09T14:02:49;19.30;99.90
28677;DHT22;15858;48.338;11.078;2022-09-09T14:05:16;19.20;99.90
28677;DHT22;15858;48.338;11.078;2022-09-09T14:07:44;19.10;99.90
28677;DHT22;15858;48.338;11.078;2022-09-09T14:10:15;19.10;99.90
28677;DHT22;15858;48.338;11.078;2022-09-09T14:12:43;19.10;99.90
28677;DHT22;15858;48.338;11.078;2022-09-09T14:15:11;19.10;99.90
28677;DHT22;15858;48.338;11.078;2022-09-09T14:17:38;19.10;99.90
28677;DHT22;15858;48.338;11.078;2022-09-09T14:20:07;19.10;99.90
28677;DHT22;15858;48.338;11.078;2022-09-09T14:22:34;19.10;99.90
28677;DHT22;15858;48.338;11.078;2022-09-09T14:25:02;19.10;99.90
28677;DHT22;15858;48.338;11.078;2022-09-09T14:27:29;19.10;99.90
28677;DHT22;15858;48.338;11.078;2022-09-09T14:29:56;19.10;99.90
28677;DHT22;15858;48.338;11.078;2022-09-09T14:32:23;19.10;99.90
28677;DHT22;15858;48.338;11.078;2022-09-09T14:34:49;19.20;99.90
28677;DHT22;15858;48.338;11.078;2022-09-09T14:37:17;19.30;99.90
28677;DHT22;15858;48.338;11.078;2022-09-09T14:39:44;19.20;99.90
28677;DHT22;15858;48.338;11.078;2022-09-09T14:42:11;19.20;99.90
28677;DHT22;15858;48.338;11.078;2022-09-09T14:44:38;18.90;99.90
28677;DHT22;15858;48.338;11.078;2022-09-09T14:47:06;18.40;99.90
28677;DHT22;15858;48.338;11.078;2022-09-09T14:49:32;18.30;99.90
28677;DHT22;15858;48.338;11.078;2022-09-09T14:51:59;18.20;99.90
28677;DHT22;15858;48.338;11.078;2022-09-09T14:54:26;18.40;99.90
28677;DHT22;15858;48.338;11.078;2022-09-09T14:56:53;18.30;99.90
28677;DHT22;15858;48.338;11.078;2022-09-09T14:59:20;18.50;99.90
28677;DHT22;15858;48.338;11.078;2022-09-09T15:01:47;18.50;99.90
28677;DHT22;15858;48.338;11.078;2022-09-09T15:04:14;18.50;99.90
28677;DHT22;15858;48.338;11.078;2022-09-09T15:06:41;18.50;99.90
28677;DHT22;15858;48.338;11.078;2022-09-09T15:09:08;18.40;99.90
28677;DHT22;15858;48.338;11.078;2022-09-09T15:11:36;18.40;99.90
28677;DHT22;15858;48.338;11.078;2022-09-09T15:14:08;18.50;99.90
28677;DHT22;15858;48.338;11.078;2022-09-09T15:16:35;18.50;99.90
28677;DHT22;15858;48.338;11.078;2022-09-09T15:19:03;18.50;99.90
28677;DHT22;15858;48.338;11.078;2022-09-09T15:21:32;18.60;99.90
28677;DHT22;15858;48.338;11.078;2022-09-09T15:23:59;18.70;99.90
28677;DHT22;15858;48.338;11.078;2022-09-09T15:26:27;18.90;99.90
28677;DHT22;15858;48.338;11.078;2022-09-09T15:28:54;19.00;99.90
28677;DHT22;15858;48.338;11.078;2022-09-09T15:31:26;19.20;99.90
28677;DHT22;15858;48.338;11.078;2022-09-09T15:33:58;19.30;99.90
28677;DHT22;15858;48.338;11.078;2022-09-09T15:36:27;19.40;99.90
28677;DHT22;15858;48.338;11.078;2022-09-09T15:38:54;19.50;99.90
28677;DHT22;15858;48.338;11.078;2022-09-09T15:41:22;19.60;99.90
28677;DHT22;15858;48.338;11.078;2022-09-09T15:43:51;19.80;99.90
28677;DHT22;15858;48.338;11.078;2022-09-09T15:48:58;20.00;99.90
28677;DHT22;15858;48.338;11.078;2022-09-09T15:51:25;20.00;99.90
28677;DHT22;15858;48.338;11.078;2022-09-09T15:54:14;20.00;99.90
28677;DHT22;15858;48.338;11.078;2022-09-09T15:56:42;19.90;99.90
28677;DHT22;15858;48.338;11.078;2022-09-09T15:59:09;19.80;99.90
28677;DHT22;15858;48.338;11.078;2022-09-09T16:01:38;19.90;99.90
28677;DHT22;15858;48.338;11.078;2022-09-09T16:04:05;19.90;99.90
28677;DHT22;15858;48.338;11.078;2022-09-09T16:06:32;19.80;99.90
28677;DHT22;15858;48.338;11.078;2022-09-09T16:08:59;19.70;99.90
28677;DHT22;15858;48.338;11.078;2022-09-09T16:11:31;19.60;99.90
28677;DHT22;15858;48.338;11.078;2022-09-09T16:13:59;19.50;99.90
28677;DHT22;15858;48.338;11.078;2022-09-09T16:16:27;19.40;99.90
28677;DHT22;15858;48.338;11.078;2022-09-09T16:18:56;19.40;99.90
28677;DHT22;15858;48.338;11.078;2022-09-09T16:21:52;19.40;99.90
28677;DHT22;15858;48.338;11.078;2022-09-09T16:24:19;19.30;99.90
28677;DHT22;15858;48.338;11.078;2022-09-09T16:26:48;19.40;99.90
28677;DHT22;15858;48.338;11.078;2022-09-09T16:29:17;19.30;99.90
28677;DHT22;15858;48.338;11.078;2022-09-09T16:31:48;19.30;99.90
28677;DHT22;15858;48.338;11.078;2022-09-09T16:34:16;19.30;99.90
28677;DHT22;15858;48.338;11.078;2022-09-09T16:36:44;19.30;99.90
28677;DHT22;15858;48.338;11.078;2022-09-09T16:39:16;19.20;99.90
28677;DHT22;15858;48.338;11.078;2022-09-09T16:41:45;19.20;99.90
28677;DHT22;15858;48.338;11.078;2022-09-09T16:44:13;19.20;99.90
28677;DHT22;15858;48.338;11.078;2022-09-09T16:46:41;19.10;99.90
28677;DHT22;15858;48.338;11.078;2022-09-09T16:49:13;19.10;99.90
28677;DHT22;15858;48.338;11.078;2022-09-09T16:51:50;19.00;99.90
28677;DHT22;15858;48.338;11.078;2022-09-09T16:54:17;19.00;99.90
28677;DHT22;15858;48.338;11.078;2022-09-09T16:56:47;19.00;99.90
28677;DHT22;15858;48.338;11.078;2022-09-09T16:59:16;18.90;99.90
28677;DHT22;15858;48.338;11.078;2022-09-09T17:01:45;18.90;99.90
28677;DHT22;15858;48.338;11.078;2022-09-09T17:04:17;18.90;99.90
28677;DHT22;15858;48.338;11.078;2022-09-09T17:06:49;18.80;99.90
28677;DHT22;15858;48.338;11.078;2022-09-09T17:09:17;18.70;99.90
28677;DHT22;15858;48.338;11.078;2022-09-09T17:11:44;18.70;99.90
28677;DHT22;15858;48.338;11.078;2022-09-09T17:14:14;18.60;99.90
28677;DHT22;15858;48.338;11.078;2022-09-09T17:16:42;18.40;99.90
28677;DHT22;15858;48.338;11.078;2022-09-09T17:19:09;18.30;99.90
28677;DHT22;15858;48.338;11.078;2022-09-09T17:21:36;18.20;99.90